Time;durP1;ratioP1;P1;durP2;ratioP2;P2;SDS_P1;SDS_P2;PMS_P1;PMS_P2;Temp;Humidity;BMP_temperature;BMP_pressure;BME280_temperature;BME280_humidity;BME280_pressure;Samples;Min_cycle;Max_cycle;Signal;HPM_P1;HPM_P2
2023/01/23 00:00:49;;;;;;;38.40;17.67;;;2.10;99.90;;;;;;5049956;28;20027;-70
2023/01/23 00:03:15;;;;;;;35.08;17.23;;;2.10;99.90;;;;;;5052033;28;20037;-70
2023/01/23 00:05:40;;;;;;;34.60;17.08;;;2.10;99.90;;;;;;5050369;28;20025;-69
2023/01/23 00:08:06;;;;;;;36.35;17.67;;;2.10;99.90;;;;;;5051953;28;20069;-69
2023/01/23 00:10:32;;;;;;;38.60;16.73;;;2.10;99.90;;;;;;5050592;28;20033;-69
2023/01/23 00:12:57;;;;;;;39.58;19.08;;;2.10;99.90;;;;;;5051466;28;20124;-69
2023/01/23 00:15:23;;;;;;;36.70;17.23;;;2.10;99.90;;;;;;5051352;28;20057;-69
2023/01/23 00:17:48;;;;;;;36.50;18.17;;;2.10;99.90;;;;;;5034868;28;20029;-69
2023/01/23 00:20:14;;;;;;;45.22;18.30;;;2.10;99.90;;;;;;5049253;28;20037;-69
2023/01/23 00:22:40;;;;;;;34.35;17.48;;;2.10;99.90;;;;;;5033212;28;20036;-69
2023/01/23 00:25:06;;;;;;;33.47;16.52;;;2.10;99.90;;;;;;5051654;28;20568;-70
2023/01/23 00:27:32;;;;;;;32.90;17.90;;;2.10;99.90;;;;;;5050187;28;20397;-70
2023/01/23 00:29:58;;;;;;;31.40;16.42;;;2.10;99.90;;;;;;5047905;28;20021;-69
2023/01/23 00:32:23;;;;;;;36.33;17.17;;;2.10;99.90;;;;;;5055174;28;20366;-69
2023/01/23 00:34:49;;;;;;;36.40;18.33;;;2.10;99.90;;;;;;5041314;28;20024;-70
2023/01/23 00:37:15;;;;;;;36.30;18.45;;;2.10;99.90;;;;;;5052137;28;20082;-69
2023/01/23 00:39:41;;;;;;;31.40;17.40;;;2.10;99.90;;;;;;5051142;28;20021;-69
2023/01/23 00:42:07;;;;;;;34.97;17.77;;;2.10;99.90;;;;;;5048221;28;20590;-69
2023/01/23 00:44:33;;;;;;;31.42;16.52;;;2.10;99.90;;;;;;5051441;28;20033;-69
2023/01/23 00:46:59;;;;;;;33.83;17.70;;;2.00;99.90;;;;;;5051049;28;20025;-69
2023/01/23 00:49:25;;;;;;;36.83;18.30;;;2.10;99.90;;;;;;5051367;28;20088;-69
2023/01/23 00:51:51;;;;;;;34.38;17.27;;;2.00;99.90;;;;;;5047935;28;20130;-69
2023/01/23 00:54:20;;;;;;;40.40;17.52;;;2.00;99.90;;;;;;5044940;28;20544;-69
2023/01/23 00:56:45;;;;;;;38.28;16.85;;;2.00;99.90;;;;;;5049069;28;20052;-70
2023/01/23 00:59:11;;;;;;;31.38;16.58;;;2.00;99.90;;;;;;5058940;28;23391;-70
2023/01/23 01:01:37;;;;;;;35.90;16.30;;;2.00;99.90;;;;;;5050448;28;20033;-69
2023/01/23 01:04:02;;;;;;;34.33;17.60;;;2.00;99.90;;;;;;5049041;28;20029;-69
2023/01/23 01:06:28;;;;;;;36.42;17.23;;;2.00;99.90;;;;;;5048239;28;20029;-69
2023/01/23 01:08:54;;;;;;;35.05;17.48;;;2.10;99.90;;;;;;5033376;28;20044;-69
2023/01/23 01:11:20;;;;;;;37.28;17.80;;;2.10;99.90;;;;;;5031448;28;20083;-69
2023/01/23 01:13:46;;;;;;;32.42;17.50;;;2.10;99.90;;;;;;5051144;28;20029;-69
2023/01/23 01:16:11;;;;;;;30.23;17.02;;;2.10;99.90;;;;;;5049160;28;20043;-69
2023/01/23 01:18:37;;;;;;;36.15;17.75;;;2.10;99.90;;;;;;5049821;28;20047;-69
2023/01/23 01:21:11;;;;;;;30.30;15.55;;;2.00;99.90;;;;;;5049682;28;20025;-69
2023/01/23 01:23:38;;;;;;;34.58;16.20;;;2.10;99.90;;;;;;5049989;28;20028;-69
2023/01/23 01:26:05;;;;;;;35.70;18.10;;;2.00;99.90;;;;;;5049863;28;20441;-70
2023/01/23 01:28:33;;;;;;;37.25;16.55;;;2.00;99.90;;;;;;5047392;28;20035;-70
2023/01/23 01:31:04;;;;;;;32.13;17.05;;;2.00;99.90;;;;;;5044616;28;20532;-69
2023/01/23 01:33:30;;;;;;;35.20;16.65;;;2.00;99.90;;;;;;5044693;28;20044;-69
2023/01/23 01:35:55;;;;;;;40.83;16.90;;;2.00;99.90;;;;;;5049436;28;20017;-69
2023/01/23 01:38:22;;;;;;;32.30;17.15;;;2.00;99.90;;;;;;5048523;28;20416;-69
2023/01/23 01:40:48;;;;;;;32.40;17.50;;;2.00;99.90;;;;;;5031024;28;20396;-69
2023/01/23 01:43:22;;;;;;;33.00;16.83;;;2.00;99.90;;;;;;5049038;28;20063;-69
2023/01/23 01:46:17;;;;;;;40.33;19.30;;;2.10;99.90;;;;;;5049229;28;20013;-69
2023/01/23 01:49:06;;;;;;;38.75;17.95;;;2.00;99.90;;;;;;5050752;28;20021;-69
2023/01/23 01:51:37;;;;;;;40.97;18.73;;;2.00;99.90;;;;;;5050328;28;20040;-69
2023/01/23 01:54:10;;;;;;;38.28;17.50;;;2.00;99.90;;;;;;5048176;28;20044;-70
2023/01/23 01:56:41;;;;;;;40.83;18.23;;;2.00;99.90;;;;;;5046517;28;20049;-69
2023/01/23 01:59:08;;;;;;;38.90;17.83;;;2.00;99.90;;;;;;5049076;28;20565;-70
2023/01/23 02:01:34;;;;;;;34.78;16.63;;;2.00;99.90;;;;;;5049890;28;20373;-70
2023/01/23 02:04:01;;;;;;;49.25;19.60;;;2.00;99.90;;;;;;5050784;28;20048;-69
2023/01/23 02:06:26;;;;;;;45.25;18.38;;;2.00;99.90;;;;;;5030410;28;20378;-69
2023/01/23 02:09:19;;;;;;;45.30;20.00;;;2.00;99.90;;;;;;5047145;28;20079;-69
2023/01/23 02:11:45;;;;;;;38.67;17.75;;;2.00;99.90;;;;;;5050684;28;20145;-69
2023/01/23 02:14:13;;;;;;;33.63;17.40;;;2.00;99.90;;;;;;5049075;28;20485;-70
2023/01/23 02:16:42;;;;;;;46.10;19.08;;;2.00;99.90;;;;;;5047768;28;20025;-69
2023/01/23 02:19:19;;;;;;;38.13;17.70;;;2.00;99.90;;;;;;5046002;28;20029;-69
2023/01/23 02:21:48;;;;;;;40.55;19.00;;;2.10;99.90;;;;;;5049407;28;20021;-69
2023/01/23 02:24:35;;;;;;;37.80;18.50;;;2.00;99.90;;;;;;5045778;28;20029;-69
2023/01/23 02:27:02;;;;;;;42.30;19.45;;;2.10;99.90;;;;;;5048517;28;20051;-69
2023/01/23 02:29:40;;;;;;;42.65;19.27;;;2.10;99.90;;;;;;5038403;28;20072;-69
2023/01/23 02:32:05;;;;;;;44.15;19.88;;;2.10;99.90;;;;;;5048425;28;20041;-69
2023/01/23 02:34:31;;;;;;;40.42;18.30;;;2.10;99.90;;;;;;5037574;28;20041;-69
2023/01/23 02:36:57;;;;;;;40.47;18.20;;;2.10;99.90;;;;;;5043872;28;20047;-69
2023/01/23 02:39:22;;;;;;;39.72;20.13;;;2.10;99.90;;;;;;5049004;28;20435;-69
2023/01/23 02:41:50;;;;;;;40.42;19.63;;;2.10;99.90;;;;;;5053212;28;20029;-70
2023/01/23 02:44:27;;;;;;;44.08;20.10;;;2.10;99.90;;;;;;5053428;28;20416;-70
2023/01/23 02:46:55;;;;;;;40.83;18.73;;;2.10;99.90;;;;;;5052165;28;20029;-69
2023/01/23 02:49:21;;;;;;;47.88;19.65;;;2.10;99.90;;;;;;5052691;28;20029;-69
2023/01/23 02:51:48;;;;;;;41.67;19.67;;;2.10;99.90;;;;;;5051795;28;20029;-69
2023/01/23 02:54:14;;;;;;;44.55;19.90;;;2.20;99.90;;;;;;5050375;28;20497;-69
2023/01/23 02:56:41;;;;;;;39.08;19.30;;;2.20;99.90;;;;;;5052551;28;20051;-69
2023/01/23 03:01:52;;;;;;;37.05;19.67;;;2.20;99.90;;;;;;5051042;28;20055;-69
2023/01/23 03:04:17;;;;;;;42.40;18.35;;;2.10;99.90;;;;;;5051896;28;20060;-70
2023/01/23 03:06:43;;;;;;;39.88;19.27;;;2.20;99.90;;;;;;5032053;28;20493;-69
2023/01/23 03:09:11;;;;;;;45.10;20.95;;;2.20;99.90;;;;;;5051080;28;20362;-69
2023/01/23 03:11:39;;;;;;;43.33;20.08;;;2.20;99.90;;;;;;5050905;28;20028;-69
2023/01/23 03:14:08;;;;;;;43.40;20.58;;;2.20;99.90;;;;;;5052845;28;20480;-69
2023/01/23 03:16:34;;;;;;;46.20;19.80;;;2.20;99.90;;;;;;5051349;28;20111;-70
2023/01/23 03:19:04;;;;;;;42.97;19.85;;;2.20;99.90;;;;;;5049252;28;20035;-70
2023/01/23 03:21:39;;;;;;;45.00;19.92;;;2.20;99.90;;;;;;5051674;28;20465;-69
2023/01/23 03:24:06;;;;;;;39.83;18.95;;;2.20;99.90;;;;;;5050750;28;20029;-69
2023/01/23 03:26:32;;;;;;;45.92;19.77;;;2.20;99.90;;;;;;5051110;28;20127;-69
2023/01/23 03:31:42;;;;;;;45.33;19.75;;;2.20;99.90;;;;;;5046267;28;20137;-70
2023/01/23 03:34:08;;;;;;;44.70;21.30;;;2.20;99.90;;;;;;5041206;28;20108;-70
2023/01/23 03:36:36;;;;;;;46.97;20.85;;;2.20;99.90;;;;;;5052342;28;20090;-69
2023/01/23 03:41:51;;;;;;;45.15;20.08;;;2.20;99.90;;;;;;5051450;28;20575;-69
2023/01/23 03:44:18;;;;;;;43.72;19.10;;;2.20;99.90;;;;;;5052460;28;20047;-70
2023/01/23 03:46:48;;;;;;;42.25;20.48;;;2.20;99.90;;;;;;5052268;28;20029;-69
2023/01/23 03:49:14;;;;;;;32.60;17.63;;;2.30;99.90;;;;;;5051337;28;20029;-70
2023/01/23 03:51:40;;;;;;;41.03;18.50;;;2.30;99.90;;;;;;5048504;28;20029;-70
2023/01/23 03:54:05;;;;;;;49.58;20.30;;;2.30;99.90;;;;;;5051915;28;20528;-70
2023/01/23 03:56:31;;;;;;;46.28;21.27;;;2.30;99.90;;;;;;5051082;28;20043;-69
2023/01/23 03:58:57;;;;;;;47.80;21.35;;;2.30;99.90;;;;;;5050520;28;20028;-69
2023/01/23 04:01:23;;;;;;;42.17;21.33;;;2.30;99.90;;;;;;5051450;28;20039;-70
2023/01/23 04:03:49;;;;;;;36.45;18.73;;;2.30;99.90;;;;;;5053536;28;20032;-69
2023/01/23 04:06:15;;;;;;;45.47;20.92;;;2.30;99.90;;;;;;5048029;28;20021;-70
2023/01/23 04:08:40;;;;;;;47.42;22.45;;;2.30;99.90;;;;;;5051773;28;20043;-69
2023/01/23 04:11:08;;;;;;;49.78;21.58;;;2.20;99.90;;;;;;5051240;28;20377;-70
2023/01/23 04:13:34;;;;;;;52.42;22.25;;;2.20;99.90;;;;;;5052072;28;20041;-69
2023/01/23 04:16:00;;;;;;;49.25;21.90;;;2.20;99.90;;;;;;5051058;28;20025;-69
2023/01/23 04:18:26;;;;;;;47.72;20.50;;;2.20;99.90;;;;;;5051022;28;20435;-69
2023/01/23 04:20:52;;;;;;;47.88;21.27;;;2.20;99.90;;;;;;5049302;28;21595;-69
2023/01/23 04:23:17;;;;;;;51.13;21.85;;;2.20;99.90;;;;;;5047890;28;20037;-69
2023/01/23 04:25:43;;;;;;;58.58;21.65;;;2.20;99.90;;;;;;5049391;28;20035;-69
2023/01/23 04:28:09;;;;;;;50.88;21.05;;;2.20;99.90;;;;;;5052080;28;20072;-69
2023/01/23 04:30:34;;;;;;;46.28;22.58;;;2.20;99.90;;;;;;5050293;28;20036;-69
2023/01/23 04:33:00;;;;;;;48.78;21.48;;;2.20;99.90;;;;;;5050785;28;20048;-70
2023/01/23 04:35:25;;;;;;;46.97;23.30;;;2.20;99.90;;;;;;5045857;28;20025;-70
2023/01/23 04:37:50;;;;;;;48.15;20.52;;;2.20;99.90;;;;;;5050741;28;20481;-69
2023/01/23 04:40:16;;;;;;;53.20;22.13;;;2.20;99.90;;;;;;5051664;28;20040;-69
2023/01/23 04:42:42;;;;;;;43.08;20.45;;;2.20;99.90;;;;;;5051695;28;20021;-69
2023/01/23 04:45:08;;;;;;;47.53;21.45;;;2.20;99.90;;;;;;5050638;28;20370;-69
2023/01/23 04:47:34;;;;;;;49.30;23.27;;;2.20;99.90;;;;;;5051891;28;20040;-69
2023/01/23 04:50:00;;;;;;;39.40;19.98;;;2.20;99.90;;;;;;5050113;28;20392;-69
2023/01/23 04:52:25;;;;;;;47.58;22.45;;;2.30;99.90;;;;;;5048025;28;20033;-69
2023/01/23 04:54:51;;;;;;;45.30;21.15;;;2.20;99.90;;;;;;5050275;28;20511;-69
2023/01/23 04:57:16;;;;;;;51.53;23.20;;;2.30;99.90;;;;;;5052082;28;20112;-69
2023/01/23 04:59:42;;;;;;;50.90;23.10;;;2.30;99.90;;;;;;5050355;28;20044;-69
2023/01/23 05:02:08;;;;;;;46.50;22.08;;;2.30;99.90;;;;;;5048817;28;20037;-69
2023/01/23 05:04:34;;;;;;;54.10;22.52;;;2.30;99.90;;;;;;5050991;28;20025;-69
2023/01/23 05:06:59;;;;;;;48.10;23.10;;;2.30;99.90;;;;;;5034877;28;20041;-70
2023/01/23 05:09:25;;;;;;;49.33;22.02;;;2.30;99.90;;;;;;5048985;28;20021;-70
2023/01/23 05:11:50;;;;;;;49.30;22.42;;;2.30;99.90;;;;;;5050209;28;20033;-70
2023/01/23 05:14:16;;;;;;;50.55;22.25;;;2.30;99.90;;;;;;5049458;28;20124;-69
2023/01/23 05:16:42;;;;;;;41.38;20.55;;;2.30;99.90;;;;;;5050155;28;20032;-69
2023/01/23 05:19:07;;;;;;;48.35;22.98;;;2.30;99.90;;;;;;5049080;28;20037;-69
2023/01/23 05:21:33;;;;;;;46.85;22.67;;;2.30;99.90;;;;;;5050394;28;20385;-69
2023/01/23 05:23:58;;;;;;;49.25;23.40;;;2.30;99.90;;;;;;5047974;28;20029;-69
2023/01/23 05:26:24;;;;;;;44.30;21.55;;;2.30;99.90;;;;;;5049445;28;20479;-69
2023/01/23 05:28:49;;;;;;;44.35;22.08;;;2.30;99.90;;;;;;5051524;28;20027;-69
2023/01/23 05:31:15;;;;;;;44.45;21.25;;;2.30;99.90;;;;;;5041370;28;20552;-70
2023/01/23 05:33:40;;;;;;;47.85;22.35;;;2.40;99.90;;;;;;5045254;28;20073;-69
2023/01/23 05:36:06;;;;;;;45.30;22.17;;;2.40;99.90;;;;;;5046009;28;20409;-70
2023/01/23 05:38:32;;;;;;;45.78;22.60;;;2.40;99.90;;;;;;5051439;28;20469;-69
2023/01/23 05:40:57;;;;;;;46.72;21.63;;;2.40;99.90;;;;;;5050191;28;20039;-69
2023/01/23 05:43:23;;;;;;;45.72;23.45;;;2.40;99.90;;;;;;5048060;28;20060;-69
2023/01/23 05:45:48;;;;;;;53.65;22.75;;;2.40;99.90;;;;;;5049455;28;20056;-69
2023/01/23 05:48:14;;;;;;;44.60;22.63;;;2.40;99.90;;;;;;5050169;28;20032;-69
2023/01/23 05:50:40;;;;;;;46.08;23.40;;;2.40;99.90;;;;;;5048324;28;20060;-69
2023/01/23 05:53:05;;;;;;;44.38;21.40;;;2.40;99.90;;;;;;5048927;28;20049;-69
2023/01/23 05:55:31;;;;;;;44.78;21.20;;;2.40;99.90;;;;;;5045767;28;20032;-69
2023/01/23 05:57:56;;;;;;;45.03;23.40;;;2.40;99.90;;;;;;5047111;28;20024;-70
2023/01/23 06:00:22;;;;;;;41.08;21.55;;;2.40;99.90;;;;;;5050257;28;20039;-69
2023/01/23 06:02:48;;;;;;;45.05;22.60;;;2.40;99.90;;;;;;5048594;28;20421;-69
2023/01/23 06:05:14;;;;;;;53.53;24.88;;;2.40;99.90;;;;;;5049043;28;20545;-69
2023/01/23 06:07:39;;;;;;;47.45;22.25;;;2.40;99.90;;;;;;5049363;28;20032;-70
2023/01/23 06:10:06;;;;;;;47.33;22.48;;;2.30;99.90;;;;;;5046341;28;20048;-69
2023/01/23 06:12:31;;;;;;;45.67;23.02;;;2.40;99.90;;;;;;5021582;28;20035;-70
2023/01/23 06:14:57;;;;;;;43.00;22.40;;;2.40;99.90;;;;;;5046868;28;20029;-69
2023/01/23 06:17:22;;;;;;;46.58;22.67;;;2.40;99.90;;;;;;5048401;28;20033;-70
2023/01/23 06:19:48;;;;;;;43.83;22.00;;;2.40;99.90;;;;;;5048715;28;20033;-69
2023/01/23 06:22:14;;;;;;;39.47;21.33;;;2.40;99.90;;;;;;5047389;28;20033;-69
2023/01/23 06:24:39;;;;;;;48.83;22.60;;;2.40;99.90;;;;;;5042106;28;20032;-69
2023/01/23 06:27:07;;;;;;;44.67;22.75;;;2.40;99.90;;;;;;5041638;28;20556;-70
2023/01/23 06:29:36;;;;;;;47.42;23.88;;;2.40;99.90;;;;;;5043260;28;20025;-70
2023/01/23 06:32:03;;;;;;;40.33;21.95;;;2.40;99.90;;;;;;5041128;28;20037;-70
2023/01/23 06:34:28;;;;;;;47.05;22.92;;;2.30;99.90;;;;;;5050203;28;20021;-70
2023/01/23 06:36:54;;;;;;;43.63;22.48;;;2.40;99.90;;;;;;5047201;28;20036;-69
2023/01/23 06:39:19;;;;;;;45.08;21.80;;;2.40;99.90;;;;;;5028498;28;20377;-69
2023/01/23 06:41:45;;;;;;;42.03;21.98;;;2.40;99.90;;;;;;5035239;28;20489;-69
2023/01/23 06:44:11;;;;;;;46.85;21.15;;;2.40;99.90;;;;;;5050153;28;20037;-70
2023/01/23 06:46:37;;;;;;;44.72;23.20;;;2.40;99.90;;;;;;5046492;28;20021;-69
2023/01/23 06:49:03;;;;;;;43.30;23.35;;;2.40;99.90;;;;;;5050084;28;20473;-69
2023/01/23 06:51:28;;;;;;;41.33;22.08;;;2.40;99.90;;;;;;5047819;28;20072;-69
2023/01/23 06:53:55;;;;;;;46.65;22.08;;;2.40;99.90;;;;;;5041794;28;20084;-70
2023/01/23 06:56:20;;;;;;;40.08;21.63;;;2.40;99.90;;;;;;5030394;28;20610;-69
2023/01/23 06:58:47;;;;;;;42.38;22.38;;;2.40;99.90;;;;;;5035436;28;20108;-69
2023/01/23 07:01:15;;;;;;;46.78;22.48;;;2.40;99.90;;;;;;5032586;28;20029;-70
2023/01/23 07:03:43;;;;;;;46.17;22.73;;;2.40;99.90;;;;;;5030470;28;20617;-69
2023/01/23 07:06:10;;;;;;;51.90;25.45;;;2.40;99.90;;;;;;5029684;28;20017;-69
2023/01/23 07:08:36;;;;;;;41.15;23.42;;;2.40;99.90;;;;;;5047067;28;20029;-70
2023/01/23 07:11:01;;;;;;;43.67;23.60;;;2.50;99.90;;;;;;5031769;28;20021;-70
2023/01/23 07:13:27;;;;;;;46.60;22.88;;;2.40;99.90;;;;;;5048480;28;20044;-69
2023/01/23 07:15:53;;;;;;;48.55;24.70;;;2.50;99.90;;;;;;5048495;28;20431;-69
2023/01/23 07:18:19;;;;;;;44.22;22.58;;;2.40;99.90;;;;;;5049906;28;20025;-70
2023/01/23 07:20:46;;;;;;;45.15;23.92;;;2.40;99.90;;;;;;5044103;28;20033;-69
2023/01/23 07:23:12;;;;;;;47.63;22.38;;;2.40;99.90;;;;;;5044446;28;20037;-69
2023/01/23 07:25:38;;;;;;;46.55;23.80;;;2.40;99.90;;;;;;5025705;28;20063;-69
2023/01/23 07:28:04;;;;;;;47.40;22.60;;;2.40;99.90;;;;;;5023069;28;20025;-69
2023/01/23 07:30:30;;;;;;;44.45;24.58;;;2.40;99.90;;;;;;5039151;28;20142;-69
2023/01/23 07:32:57;;;;;;;51.88;24.67;;;2.50;99.90;;;;;;5046542;28;20032;-70
2023/01/23 07:35:23;;;;;;;49.08;24.60;;;2.50;99.90;;;;;;5046499;28;20070;-69
2023/01/23 07:37:48;;;;;;;51.15;24.02;;;2.50;99.90;;;;;;5028959;28;20040;-69
2023/01/23 07:40:14;;;;;;;51.10;24.10;;;2.50;99.90;;;;;;5053613;28;20115;-69
2023/01/23 07:42:40;;;;;;;52.15;24.38;;;2.50;99.90;;;;;;5049736;28;20065;-69
2023/01/23 07:45:08;;;;;;;39.65;21.65;;;2.50;99.90;;;;;;5050829;28;20032;-69
2023/01/23 07:47:35;;;;;;;43.78;23.17;;;2.50;99.90;;;;;;5039333;28;20025;-69
2023/01/23 07:50:00;;;;;;;48.75;25.05;;;2.50;99.90;;;;;;5044580;28;20037;-69
2023/01/23 07:52:26;;;;;;;42.25;22.70;;;2.50;99.90;;;;;;5048558;28;20400;-69
2023/01/23 07:54:52;;;;;;;49.83;25.02;;;2.60;99.90;;;;;;5042385;28;20037;-70
2023/01/23 07:57:17;;;;;;;44.92;24.02;;;2.60;99.90;;;;;;5037784;28;20033;-70
2023/01/23 07:59:43;;;;;;;46.17;24.25;;;2.60;99.90;;;;;;5048071;28;20071;-69
2023/01/23 08:02:09;;;;;;;41.88;23.48;;;2.60;99.90;;;;;;5049493;28;20075;-69
2023/01/23 08:04:35;;;;;;;49.13;24.48;;;2.60;99.90;;;;;;5050623;28;20049;-70
2023/01/23 08:07:01;;;;;;;43.63;23.25;;;2.60;99.90;;;;;;5052281;28;20071;-71
2023/01/23 08:09:27;;;;;;;46.10;22.95;;;2.60;99.90;;;;;;5052436;28;20021;-70
2023/01/23 08:11:52;;;;;;;49.28;24.63;;;2.60;99.90;;;;;;5048866;28;20034;-70
2023/01/23 08:14:19;;;;;;;48.38;23.23;;;2.70;99.90;;;;;;5038304;28;20068;-70
2023/01/23 08:16:48;;;;;;;46.70;23.90;;;2.70;99.90;;;;;;5050125;28;20492;-70
2023/01/23 08:19:13;;;;;;;51.22;24.48;;;2.70;99.90;;;;;;5058584;28;20041;-70
2023/01/23 08:21:39;;;;;;;52.35;25.25;;;2.80;99.90;;;;;;5053166;28;20020;-70
2023/01/23 08:24:05;;;;;;;45.75;23.80;;;2.80;99.90;;;;;;5059771;28;20117;-70
2023/01/23 08:26:31;;;;;;;53.92;25.60;;;2.80;99.90;;;;;;5030911;28;20043;-70
2023/01/23 08:28:56;;;;;;;49.85;24.60;;;2.80;99.90;;;;;;5050293;28;20496;-69
2023/01/23 08:31:22;;;;;;;51.75;25.80;;;2.80;99.90;;;;;;5048186;28;20056;-69
2023/01/23 08:33:48;;;;;;;52.95;24.95;;;2.90;99.90;;;;;;5040145;28;20079;-69
2023/01/23 08:36:13;;;;;;;47.95;24.55;;;2.90;99.90;;;;;;5028914;28;20060;-69
2023/01/23 08:38:39;;;;;;;47.55;26.23;;;2.90;99.90;;;;;;5054037;28;20029;-69
2023/01/23 08:41:05;;;;;;;43.97;24.60;;;2.90;99.90;;;;;;5051288;28;20059;-70
2023/01/23 08:43:31;;;;;;;46.72;23.98;;;3.00;99.90;;;;;;5066684;28;20380;-69
2023/01/23 08:45:58;;;;;;;46.45;23.58;;;3.00;99.90;;;;;;5051225;28;20477;-69
2023/01/23 08:48:25;;;;;;;39.42;20.67;;;3.00;99.90;;;;;;5050079;28;20032;-69
2023/01/23 08:50:57;;;;;;;46.10;23.67;;;3.10;99.90;;;;;;5048489;28;20032;-69
2023/01/23 08:53:22;;;;;;;44.75;22.83;;;3.10;99.90;;;;;;5044336;28;20048;-69
2023/01/23 08:55:48;;;;;;;47.65;23.10;;;3.10;99.90;;;;;;5050224;28;20392;-70
2023/01/23 08:58:13;;;;;;;48.30;24.02;;;3.10;99.90;;;;;;5052867;28;20481;-69
2023/01/23 09:00:39;;;;;;;41.92;23.05;;;3.20;99.90;;;;;;5047875;28;20705;-69
2023/01/23 09:03:05;;;;;;;42.30;22.40;;;3.20;99.90;;;;;;5064316;28;20131;-70
2023/01/23 09:05:31;;;;;;;48.20;22.58;;;3.20;99.90;;;;;;5050362;28;20024;-70
2023/01/23 09:07:58;;;;;;;39.97;21.33;;;3.30;99.90;;;;;;5057479;28;20500;-70
2023/01/23 09:10:24;;;;;;;44.13;22.83;;;3.30;99.90;;;;;;5051390;28;20032;-69
2023/01/23 09:12:51;;;;;;;40.42;21.65;;;3.30;99.90;;;;;;5048562;28;20045;-69
2023/01/23 09:15:17;;;;;;;38.33;20.85;;;3.40;99.90;;;;;;5043790;28;20493;-70
2023/01/23 09:17:42;;;;;;;40.15;19.92;;;3.40;99.90;;;;;;5051446;28;20040;-70
2023/01/23 09:20:09;;;;;;;41.97;20.52;;;3.40;99.90;;;;;;5056381;28;20029;-70
2023/01/23 09:22:34;;;;;;;41.30;21.90;;;3.50;99.90;;;;;;5048781;28;20159;-70
2023/01/23 09:25:00;;;;;;;41.03;21.23;;;3.50;99.90;;;;;;5050289;28;20108;-71
2023/01/23 09:27:26;;;;;;;47.70;21.25;;;3.50;99.90;;;;;;5050807;28;20527;-71
2023/01/23 09:29:51;;;;;;;43.78;22.25;;;3.50;99.90;;;;;;5043322;28;20037;-70
2023/01/23 09:32:17;;;;;;;34.70;21.25;;;3.60;99.90;;;;;;5040448;28;20056;-70
2023/01/23 09:34:43;;;;;;;40.75;22.15;;;3.60;99.90;;;;;;5052846;28;20021;-71
2023/01/23 09:37:08;;;;;;;37.47;20.98;;;3.60;99.90;;;;;;5052335;28;20083;-71
2023/01/23 09:39:34;;;;;;;43.17;22.25;;;3.60;99.90;;;;;;5049965;28;20044;-72
2023/01/23 09:42:08;;;;;;;39.28;21.50;;;3.60;99.90;;;;;;5052963;28;20033;-71
2023/01/23 09:45:01;;;;;;;40.00;20.45;;;3.70;99.90;;;;;;5041877;28;20545;-70
2023/01/23 09:47:37;;;;;;;40.65;21.70;;;3.70;99.90;;;;;;5041049;28;20029;-71
2023/01/23 09:50:16;;;;;;;33.22;19.20;;;3.70;99.90;;;;;;5037169;28;20057;-71
2023/01/23 09:52:53;;;;;;;38.60;19.83;;;3.70;99.90;;;;;;5041252;28;20112;-71
2023/01/23 09:56:00;;;;;;;37.03;20.33;;;3.70;99.90;;;;;;5044124;28;20163;-72
2023/01/23 09:58:37;;;;;;;38.33;19.25;;;3.70;99.90;;;;;;5031387;28;20032;-71
2023/01/23 10:01:03;;;;;;;39.38;20.38;;;3.70;99.90;;;;;;5043352;28;20032;-70
2023/01/23 10:03:30;;;;;;;39.72;22.70;;;3.70;99.90;;;;;;5041202;28;20029;-70
2023/01/23 10:06:13;;;;;;;36.40;19.65;;;3.70;99.90;;;;;;5038830;28;20029;-71
2023/01/23 10:08:38;;;;;;;35.72;19.30;;;3.70;99.90;;;;;;5048004;28;20021;-70
2023/01/23 10:11:23;;;;;;;40.15;20.02;;;3.70;99.90;;;;;;5044918;28;20032;-70
2023/01/23 10:13:51;;;;;;;36.25;18.27;;;3.70;99.90;;;;;;5045028;28;20037;-70
2023/01/23 10:16:40;;;;;;;37.95;19.63;;;3.80;99.90;;;;;;5037948;28;20539;-70
2023/01/23 10:19:44;;;;;;;37.08;19.60;;;3.80;99.90;;;;;;5038421;28;20036;-70
2023/01/23 10:22:28;;;;;;;38.35;19.80;;;3.80;99.90;;;;;;5035006;28;20021;-69
2023/01/23 10:24:57;;;;;;;35.42;18.48;;;3.90;99.90;;;;;;5048267;28;20398;-70
2023/01/23 10:27:37;;;;;;;37.30;19.98;;;3.90;99.90;;;;;;5039062;28;20409;-71
2023/01/23 10:30:39;;;;;;;33.92;18.85;;;3.90;99.90;;;;;;5036368;28;20057;-71
2023/01/23 10:33:15;;;;;;;37.65;19.48;;;4.00;99.90;;;;;;4963462;28;20046;-70
2023/01/23 10:35:52;;;;;;;44.38;21.02;;;4.00;99.90;;;;;;5031784;28;20037;-71
2023/01/23 10:38:29;;;;;;;36.15;19.67;;;4.10;99.90;;;;;;5024329;28;20036;-70
2023/01/23 10:41:13;;;;;;;39.80;19.25;;;4.10;99.90;;;;;;5036654;28;20032;-71
2023/01/23 10:43:40;;;;;;;37.03;19.23;;;4.20;99.90;;;;;;5040334;28;20600;-70
2023/01/23 10:46:14;;;;;;;35.40;18.85;;;4.20;99.90;;;;;;5039235;28;20025;-71
2023/01/23 10:48:49;;;;;;;33.75;19.25;;;4.20;99.90;;;;;;5033799;28;20045;-70
2023/01/23 10:51:36;;;;;;;37.08;18.83;;;4.30;99.90;;;;;;5041286;28;20470;-70
2023/01/23 10:54:01;;;;;;;33.65;18.27;;;4.20;99.90;;;;;;5038323;28;20059;-71
2023/01/23 10:56:27;;;;;;;35.50;17.80;;;4.20;99.90;;;;;;5040266;28;20432;-71
2023/01/23 10:58:59;;;;;;;32.60;18.95;;;4.20;99.90;;;;;;5026951;28;20061;-71
2023/01/23 11:01:26;;;;;;;35.03;19.13;;;4.20;99.90;;;;;;5041971;28;20025;-71
2023/01/23 11:03:52;;;;;;;37.05;21.55;;;4.30;99.90;;;;;;5044846;28;20017;-71
2023/01/23 11:06:24;;;;;;;40.20;21.17;;;4.30;99.90;;;;;;5049143;28;20386;-71
2023/01/23 11:08:59;;;;;;;35.17;19.90;;;4.30;99.90;;;;;;5051098;28;20374;-71
2023/01/23 11:11:30;;;;;;;40.88;21.13;;;4.30;99.90;;;;;;5043131;28;20029;-71
2023/01/23 11:14:15;;;;;;;39.42;20.05;;;4.40;99.90;;;;;;5034295;28;20033;-72
2023/01/23 11:16:41;;;;;;;40.22;20.73;;;4.50;99.90;;;;;;5051203;28;20434;-72
2023/01/23 11:19:17;;;;;;;35.80;20.13;;;4.60;99.90;;;;;;5058724;28;20029;-71
2023/01/23 11:21:56;;;;;;;37.80;20.80;;;4.70;99.90;;;;;;5061317;28;20353;-71
2023/01/23 11:24:30;;;;;;;42.35;21.70;;;4.70;99.90;;;;;;5039599;28;20028;-70
2023/01/23 11:27:00;;;;;;;35.95;20.00;;;4.70;99.90;;;;;;5050923;28;20036;-69
2023/01/23 11:29:29;;;;;;;35.00;20.58;;;4.70;99.90;;;;;;5030404;28;20022;-71
2023/01/23 11:32:09;;;;;;;40.28;20.10;;;4.70;99.90;;;;;;5048135;28;20180;-70
2023/01/23 11:34:52;;;;;;;39.00;19.95;;;4.80;99.90;;;;;;5050837;28;20079;-71
2023/01/23 11:37:29;;;;;;;39.10;19.80;;;4.80;99.90;;;;;;5048397;28;20106;-70
2023/01/23 11:40:13;;;;;;;35.15;19.20;;;4.80;99.90;;;;;;5056155;28;20031;-71
2023/01/23 11:42:41;;;;;;;35.45;19.33;;;4.80;99.90;;;;;;5054145;28;20074;-71
2023/01/23 11:45:28;;;;;;;35.42;19.40;;;4.80;99.90;;;;;;5050450;28;20453;-71
2023/01/23 11:48:09;;;;;;;37.38;20.55;;;4.80;99.90;;;;;;5046718;28;20070;-72
2023/01/23 11:50:41;;;;;;;33.83;18.17;;;4.80;99.90;;;;;;5028696;28;20045;-71
2023/01/23 11:53:21;;;;;;;31.15;18.88;;;4.70;99.90;;;;;;5048256;28;20057;-71
2023/01/23 11:56:20;;;;;;;35.97;19.35;;;4.70;99.90;;;;;;5052095;28;20024;-71
2023/01/23 11:59:08;;;;;;;31.13;18.77;;;4.70;99.90;;;;;;5038184;28;20033;-71
2023/01/23 12:01:33;;;;;;;28.42;17.15;;;4.70;99.90;;;;;;5052147;28;20055;-71
2023/01/23 12:04:23;;;;;;;34.40;17.95;;;4.70;99.90;;;;;;5046006;28;20485;-71
2023/01/23 12:06:52;;;;;;;35.35;18.05;;;4.70;99.90;;;;;;5049347;28;20033;-71
2023/01/23 12:09:20;;;;;;;35.13;18.38;;;4.60;99.90;;;;;;5049456;28;20057;-71
2023/01/23 12:11:54;;;;;;;29.05;16.80;;;4.60;99.90;;;;;;5052772;28;20021;-71
2023/01/23 12:14:27;;;;;;;27.52;15.82;;;4.70;99.90;;;;;;5054355;28;20028;-71
2023/01/23 12:17:32;;;;;;;25.77;16.10;;;4.70;99.90;;;;;;5040442;28;20025;-70
2023/01/23 12:20:10;;;;;;;29.60;17.48;;;4.60;99.90;;;;;;5048414;28;20392;-70
2023/01/23 12:23:19;;;;;;;35.15;17.90;;;4.60;99.90;;;;;;5041657;28;20030;-70
2023/01/23 12:26:00;;;;;;;29.88;16.75;;;4.70;99.90;;;;;;5049412;28;20053;-71
2023/01/23 12:28:59;;;;;;;31.23;17.25;;;4.70;99.90;;;;;;5050545;28;20485;-72
2023/01/23 12:31:52;;;;;;;27.60;17.35;;;4.70;99.90;;;;;;5053812;28;20025;-70
2023/01/23 12:34:49;;;;;;;31.17;17.80;;;4.70;99.90;;;;;;5047811;28;20051;-71
2023/01/23 12:37:34;;;;;;;31.70;17.52;;;4.70;99.90;;;;;;5045003;28;20565;-71
2023/01/23 12:40:11;;;;;;;29.33;17.48;;;4.70;99.90;;;;;;5055005;28;20033;-71
2023/01/23 12:42:54;;;;;;;28.88;16.42;;;4.70;99.90;;;;;;5050300;28;20029;-71
2023/01/23 12:45:26;;;;;;;31.48;17.88;;;4.70;99.90;;;;;;5053652;28;20021;-71
2023/01/23 12:48:01;;;;;;;31.02;17.67;;;4.70;99.90;;;;;;5053246;28;20021;-71
2023/01/23 12:50:54;;;;;;;31.30;16.67;;;4.70;99.90;;;;;;5051746;28;20051;-70
2023/01/23 12:53:22;;;;;;;28.65;17.27;;;4.70;99.90;;;;;;5041937;28;20405;-71
2023/01/23 12:56:02;;;;;;;31.70;16.70;;;4.70;99.90;;;;;;5050988;28;20498;-71